createdAt,value
2016-10-28T12:31:51.550Z,14.14
2016-10-28T12:32:50.596Z,14.05
2016-10-28T12:33:50.367Z,14.1
2016-10-28T12:34:50.585Z,14.15
2016-10-28T12:35:50.494Z,14.23
2016-10-28T12:36:50.550Z,14.15
2016-10-28T12:37:50.976Z,14.28
2016-10-28T12:38:50.537Z,14.17
2016-10-28T12:39:50.823Z,14.26
2016-10-28T12:40:51.123Z,14.32
2016-10-28T12:41:50.437Z,14.2
2016-10-28T12:42:51.411Z,14.11
2016-10-28T12:43:50.830Z,14.23
2016-10-28T12:44:50.733Z,14.2
2016-10-28T12:45:51.147Z,14.18
2016-10-28T12:46:50.894Z,14.17
2016-10-28T12:47:51.352Z,14.1
2016-10-28T12:48:51.286Z,14.05
2016-10-28T12:49:51.370Z,14.05
2016-10-28T12:50:51.151Z,13.99
2016-10-28T12:51:50.542Z,14.17
2016-10-28T12:52:51.942Z,14.11
2016-10-28T12:53:50.667Z,13.97
2016-10-28T12:54:50.854Z,13.99
2016-10-28T12:55:51.954Z,14.05
2016-10-28T12:56:50.817Z,13.87
2016-10-28T12:57:50.719Z,13.96
2016-10-28T12:58:51.164Z,14
2016-10-28T12:59:50.930Z,13.87
2016-10-28T13:00:52.194Z,13.92
2016-10-28T13:01:51.855Z,13.89
2016-10-28T13:02:52.345Z,13.9
2016-10-28T13:03:51.888Z,13.9
2016-10-28T13:04:51.518Z,13.79
2016-10-28T13:05:51.231Z,13.79
2016-10-28T13:06:51.808Z,13.77
2016-10-28T13:07:51.603Z,13.89
2016-10-28T13:08:51.842Z,13.72
2016-10-28T13:09:51.461Z,13.75
2016-10-28T13:10:51.001Z,13.74
2016-10-28T13:11:51.042Z,13.79
2016-10-28T13:12:51.738Z,13.74
2016-10-28T13:13:50.917Z,13.77
2016-10-28T13:14:51.619Z,13.85
2016-10-28T13:15:52.022Z,13.78
2016-10-28T13:16:51.086Z,13.89
2016-10-28T13:17:51.503Z,13.86
2016-10-28T13:18:51.886Z,13.93
2016-10-28T13:19:52.333Z,14.03
2016-10-28T13:20:52.137Z,13.97
2016-10-28T13:21:51.881Z,14.08
2016-10-28T13:22:51.868Z,13.97
2016-10-28T13:23:52.689Z,14.05
2016-10-28T13:24:51.442Z,14.08
2016-10-28T13:25:51.631Z,14
2016-10-28T13:26:51.542Z,14
2016-10-28T13:27:51.581Z,14
2016-10-28T13:28:51.951Z,13.93
2016-10-28T13:29:52.606Z,14.04
2016-10-28T13:30:52.432Z,13.93
2016-10-28T13:31:52.608Z,13.89
2016-10-28T13:32:51.837Z,13.9
2016-10-28T13:33:51.868Z,13.95
2016-10-28T13:34:51.934Z,13.97
2016-10-28T13:35:52.521Z,14.03
2016-10-28T13:36:52.061Z,13.92
2016-10-28T13:37:51.600Z,14
2016-10-28T13:38:52.049Z,13.96
2016-10-28T13:39:51.734Z,13.92
2016-10-28T13:40:51.765Z,13.9
2016-10-28T13:41:52.822Z,14.04
2016-10-28T13:42:52.291Z,13.97
2016-10-28T13:43:52.059Z,14.03
2016-10-28T13:44:51.889Z,14
2016-10-28T13:45:52.567Z,14
2016-10-28T13:46:51.957Z,13.97
2016-10-28T13:47:51.826Z,13.9
2016-10-28T13:48:52.840Z,13.95
2016-10-28T13:49:52.017Z,14.05
2016-10-28T13:50:52.836Z,13.89
2016-10-28T13:51:51.889Z,13.97
2016-10-28T13:52:51.974Z,13.9
2016-10-28T13:53:52.117Z,13.95
2016-10-28T13:54:52.253Z,13.93
2016-10-28T13:55:52.622Z,13.89
2016-10-28T13:56:52.078Z,13.96
2016-10-28T13:57:52.467Z,13.79
2016-10-28T13:58:53.306Z,13.89
2016-10-28T13:59:52.507Z,13.79
2016-10-28T14:00:53.574Z,13.86
2016-10-28T14:01:52.695Z,13.85
2016-10-28T14:02:52.074Z,13.87
2016-10-28T14:03:52.178Z,13.9
2016-10-28T14:04:52.340Z,13.87
2016-10-28T14:05:52.245Z,13.89
2016-10-28T14:06:53.014Z,13.9
2016-10-28T14:07:52.769Z,13.86
2016-10-28T14:08:52.181Z,13.77
2016-10-28T14:09:52.376Z,13.77
2016-10-28T14:10:52.353Z,13.87
2016-10-28T14:11:53.342Z,13.78
2016-10-28T14:12:52.321Z,13.87
2016-10-28T14:13:52.483Z,13.79
2016-10-28T14:14:52.583Z,13.77
2016-10-28T14:15:52.397Z,13.77
2016-10-28T14:16:52.656Z,13.77
2016-10-28T14:17:52.677Z,13.72
2016-10-28T14:18:52.959Z,13.74
2016-10-28T14:19:52.637Z,13.78
2016-10-28T14:20:53.261Z,13.78
2016-10-28T14:21:52.492Z,13.75
2016-10-28T14:22:52.370Z,13.78
2016-10-28T14:23:52.464Z,13.75
2016-10-28T14:24:52.775Z,13.72
2016-10-28T14:25:52.868Z,13.72
2016-10-28T14:26:52.786Z,13.7
2016-10-28T14:27:53.230Z,13.63
2016-10-28T14:28:52.987Z,13.71
2016-10-28T14:29:52.751Z,13.63
2016-10-28T14:30:52.536Z,13.75
2016-10-28T14:31:52.775Z,13.74
2016-10-28T14:32:52.597Z,13.63
2016-10-28T14:33:52.858Z,13.75
2016-10-28T14:34:52.579Z,13.71
2016-10-28T14:35:53.127Z,13.68
2016-10-28T14:36:52.947Z,13.72
2016-10-28T14:37:53.738Z,13.71
2016-10-28T14:38:53.511Z,13.75
2016-10-28T14:39:53.576Z,13.62
2016-10-28T14:40:53.480Z,13.63
2016-10-28T14:41:54.036Z,13.71
2016-10-28T14:42:53.278Z,13.77
2016-10-28T14:43:53.734Z,13.74
2016-10-28T14:44:53.612Z,13.75
2016-10-28T14:45:52.778Z,13.74
2016-10-28T14:46:52.807Z,13.71
2016-10-28T14:47:53.127Z,13.78
2016-10-28T14:48:53.649Z,13.77
2016-10-28T14:49:52.746Z,13.75
2016-10-28T14:50:54.490Z,13.74
2016-10-28T14:51:54.861Z,13.77
2016-10-28T14:52:53.564Z,13.78
2016-10-28T14:53:54.188Z,13.81
2016-10-28T14:54:55.487Z,13.74
2016-10-28T14:55:55.247Z,13.75
2016-10-28T14:56:56.322Z,13.71
2016-10-28T14:57:54.331Z,13.81
2016-10-28T14:58:53.599Z,13.71
2016-10-28T14:59:54.155Z,13.72
2016-10-28T15:00:53.603Z,13.74
2016-10-28T15:01:54.246Z,13.71
2016-10-28T15:02:53.328Z,13.67
2016-10-28T15:03:53.768Z,13.67
2016-10-28T15:04:53.498Z,13.62
2016-10-28T15:05:53.547Z,13.65
2016-10-28T15:06:53.774Z,13.67
2016-10-28T15:07:53.093Z,13.65
2016-10-28T15:08:53.496Z,13.65
2016-10-28T15:09:53.721Z,13.57
2016-10-28T15:10:53.690Z,13.62
2016-10-28T15:11:53.521Z,13.57
2016-10-28T15:12:53.715Z,13.62
2016-10-28T15:13:53.745Z,13.57
2016-10-28T15:14:54.530Z,13.56
2016-10-28T15:15:53.691Z,13.59
2016-10-28T15:16:53.863Z,13.52
2016-10-28T15:17:53.843Z,13.57
2016-10-28T15:18:53.575Z,13.53
2016-10-28T15:19:54.633Z,13.57
2016-10-28T15:20:54.182Z,13.52
2016-10-28T15:21:54.030Z,13.5
2016-10-28T15:22:54.330Z,13.53
2016-10-28T15:23:53.632Z,13.49
2016-10-28T15:24:54.035Z,13.5
2016-10-28T15:25:53.841Z,13.46
2016-10-28T15:26:54.415Z,13.42
2016-10-28T15:27:54.072Z,13.46
2016-10-28T15:28:54.304Z,13.44
2016-10-28T15:29:54.328Z,13.46
2016-10-28T15:30:54.133Z,13.41
2016-10-28T15:31:54.363Z,13.42
2016-10-28T15:32:54.268Z,13.44
2016-10-28T15:33:53.876Z,13.44
2016-10-28T15:34:53.890Z,13.47
2016-10-28T15:35:53.822Z,13.49
2016-10-28T15:36:54.316Z,13.42
2016-10-28T15:37:53.848Z,13.41
2016-10-28T15:38:54.593Z,13.5
2016-10-28T15:39:54.573Z,13.44
2016-10-28T15:40:54.267Z,13.46
2016-10-28T15:41:54.184Z,13.47
2016-10-28T15:42:54.764Z,13.35
2016-10-28T15:43:55.265Z,13.37
2016-10-28T15:44:54.255Z,13.3
2016-10-28T15:45:55.262Z,13.27
2016-10-28T15:46:54.856Z,13.25
2016-10-28T15:47:54.600Z,13.2
2016-10-28T15:48:54.630Z,13.18
2016-10-28T15:49:54.915Z,13.12
2016-10-28T15:50:54.545Z,13.15
2016-10-28T15:51:54.535Z,13.11
2016-10-28T15:52:54.349Z,13.05
2016-10-28T15:53:54.585Z,13.13
2016-10-28T15:54:54.702Z,13.09
2016-10-28T15:55:54.607Z,13.04
2016-10-28T15:56:54.616Z,13.08
2016-10-28T15:57:54.272Z,13.03
2016-10-28T15:58:54.658Z,13.03
2016-10-28T15:59:54.380Z,13.01
2016-10-28T16:00:55.361Z,13.12
2016-10-28T16:01:55.491Z,13.04
2016-10-28T16:02:54.506Z,13.11
2016-10-28T16:03:55.552Z,13.01
2016-10-28T16:04:55.953Z,12.98
2016-10-28T16:05:54.646Z,13.05
2016-10-28T16:06:55.398Z,12.9
2016-10-28T16:07:54.567Z,13.04
2016-10-28T16:08:54.561Z,13.12
2016-10-28T16:09:55.039Z,13.09
2016-10-28T16:10:54.760Z,13.11
2016-10-28T16:11:54.918Z,13.15
2016-10-28T16:12:55.736Z,13.09
2016-10-28T16:13:54.531Z,13.11
2016-10-28T16:16:54.604Z,13.13
2016-10-28T16:17:55.697Z,13.13
2016-10-28T16:18:54.904Z,13.09
2016-10-28T16:19:55.331Z,13.05
2016-10-28T16:20:54.899Z,13.12
2016-10-28T16:21:55.423Z,13.18
2016-10-28T16:22:55.672Z,13.13
2016-10-28T16:23:55.167Z,13.16
2016-10-28T16:24:55.495Z,13.09
2016-10-28T16:25:54.891Z,13.11
2016-10-28T16:26:55.310Z,13.08
2016-10-28T16:27:55.077Z,13.09
2016-10-28T16:28:55.461Z,13.11
2016-10-28T16:29:55.509Z,13.12
2016-10-28T16:30:56.463Z,13.09
2016-10-28T16:31:55.827Z,13.11
2016-10-28T16:32:56.067Z,13.09
2016-10-28T16:33:55.650Z,13.09
2016-10-28T16:34:55.461Z,13.16
2016-10-28T16:35:55.607Z,13.18
2016-10-28T16:36:55.635Z,13.12
2016-10-28T16:37:55.348Z,13.12
2016-10-28T16:38:55.229Z,13.19
2016-10-28T16:39:55.217Z,13.22
2016-10-28T16:40:55.837Z,13.12
2016-10-28T16:41:56.413Z,13.16
2016-10-28T16:42:56.030Z,13.18
2016-10-28T16:43:55.206Z,13.15
2016-10-28T16:44:56.250Z,13.08
2016-10-28T16:45:55.536Z,13.16
2016-10-28T16:46:55.347Z,13.16
2016-10-28T16:47:55.348Z,13.12
2016-10-28T16:48:55.671Z,13.2
2016-10-28T16:49:55.845Z,13.19
2016-10-28T16:50:55.290Z,13.22
2016-10-28T16:51:55.169Z,13.22
2016-10-28T16:52:56.548Z,13.25
2016-10-28T16:53:55.472Z,13.25
2016-10-28T16:54:55.406Z,13.22
2016-10-28T16:55:56.265Z,13.09
2016-10-28T16:56:55.772Z,13.15
2016-10-28T16:57:55.988Z,13.15
2016-10-28T16:58:55.721Z,13.16
2016-10-28T16:59:55.560Z,13.13
2016-10-28T17:00:55.491Z,13.11
2016-10-28T17:01:55.670Z,13.05
2016-10-28T17:02:56.488Z,13.09
2016-10-28T17:03:55.705Z,13.11
2016-10-28T17:04:55.990Z,13.16
2016-10-28T17:05:56.228Z,13.09
2016-10-28T17:06:56.126Z,13.11
2016-10-28T17:07:55.803Z,13.12
2016-10-28T17:08:55.866Z,13.13
2016-10-28T17:09:56.623Z,13.23
2016-10-28T17:10:55.716Z,13.15
2016-10-28T17:11:56.284Z,13.08
2016-10-28T17:12:56.193Z,13.08
2016-10-28T17:13:55.855Z,13.11
2016-10-28T17:14:56.303Z,13.13
2016-10-28T17:15:57.065Z,13.16
2016-10-28T17:16:56.174Z,13.04
2016-10-28T17:17:56.522Z,13.04
2016-10-28T17:18:56.845Z,13.09
2016-10-28T17:19:55.894Z,13.05
2016-10-28T17:20:57.221Z,12.94
2016-10-28T17:21:56.669Z,12.91
2016-10-28T17:22:56.845Z,12.95
2016-10-28T17:23:56.482Z,13.08
2016-10-28T17:24:56.493Z,13.03
2016-10-28T17:25:57.188Z,12.93
2016-10-28T17:26:57.069Z,12.94
2016-10-28T17:27:56.569Z,13
2016-10-28T17:28:55.803Z,12.95
2016-10-28T17:29:55.923Z,12.93
2016-10-28T17:30:56.389Z,13.01
2016-10-28T17:31:56.409Z,12.97
2016-10-28T17:32:56.040Z,12.97
2016-10-28T17:33:56.939Z,12.94
2016-10-28T17:34:56.789Z,12.98
2016-10-28T17:35:56.941Z,12.97
2016-10-28T17:36:56.787Z,12.93
2016-10-28T17:37:56.588Z,12.98
2016-10-28T17:38:56.419Z,12.98
2016-10-28T17:39:57.006Z,12.98
2016-10-28T17:40:57.099Z,12.91
2016-10-28T17:41:56.933Z,13
2016-10-28T17:42:56.540Z,12.94
2016-10-28T17:43:56.896Z,12.93
2016-10-28T17:44:56.729Z,12.87
2016-10-28T17:45:56.910Z,12.91
2016-10-28T17:46:57.297Z,12.93
2016-10-28T17:47:56.765Z,12.9
2016-10-28T17:48:56.721Z,12.93
2016-10-28T17:49:57.490Z,12.83
2016-10-28T17:50:57.444Z,12.91
2016-10-28T17:51:57.094Z,12.94
2016-10-28T17:52:56.798Z,12.94
2016-10-28T17:53:57.170Z,12.91
2016-10-28T17:54:56.756Z,12.87
2016-10-28T17:55:56.841Z,12.95
2016-10-28T17:56:57.207Z,12.94
2016-10-28T17:57:57.406Z,12.95
2016-10-28T17:58:56.520Z,12.94
2016-10-28T17:59:56.789Z,12.97
2016-10-28T18:00:57.621Z,12.94
2016-10-28T18:01:57.025Z,12.97
2016-10-28T18:02:57.380Z,12.91
2016-10-28T18:03:56.854Z,12.94
2016-10-28T18:04:57.324Z,12.95
2016-10-28T18:05:57.089Z,12.97
2016-10-28T18:06:56.989Z,12.97
2016-10-28T18:07:56.972Z,12.95
2016-10-28T18:08:57.252Z,12.91
2016-10-28T18:09:58.047Z,12.94
2016-10-28T18:10:56.776Z,12.9
2016-10-28T18:11:57.048Z,12.85
2016-10-28T18:12:56.996Z,12.85
2016-10-28T18:13:58.106Z,13
2016-10-28T18:14:57.295Z,12.86
2016-10-28T18:15:57.544Z,12.97
2016-10-28T18:16:57.219Z,12.86
2016-10-28T18:17:58.018Z,12.86
2016-10-28T18:18:57.565Z,12.93
2016-10-28T18:19:57.510Z,12.87
2016-10-28T18:20:56.926Z,12.73
2016-10-28T18:21:57.235Z,12.83
2016-10-28T18:22:57.900Z,12.87
2016-10-28T18:23:57.892Z,12.79
2016-10-28T18:24:57.699Z,12.86
2016-10-28T18:25:56.956Z,12.9
2016-10-28T18:26:57.938Z,12.8
2016-10-28T18:27:57.252Z,12.78
2016-10-28T18:28:57.898Z,12.7
2016-10-28T18:29:57.632Z,12.72
2016-10-28T18:30:58.868Z,12.73
2016-10-28T18:31:57.327Z,12.7
2016-10-28T18:32:57.403Z,12.78
2016-10-28T18:33:57.373Z,12.72
2016-10-28T18:34:58.105Z,12.7
2016-10-28T18:35:57.991Z,12.68
2016-10-28T18:36:57.811Z,12.72
2016-10-28T18:37:58.351Z,12.65
2016-10-28T18:38:58.136Z,12.75
2016-10-28T18:39:57.933Z,12.75
2016-10-28T18:40:58.062Z,12.78
2016-10-28T18:41:57.687Z,12.7
2016-10-28T18:42:57.639Z,12.78
2016-10-28T18:43:57.914Z,12.79
2016-10-28T18:44:58.608Z,12.86
2016-10-28T18:45:57.975Z,12.72
2016-10-28T18:46:57.304Z,12.75
2016-10-28T18:47:58.215Z,12.87
2016-10-28T18:48:58.043Z,12.85
2016-10-28T18:49:57.621Z,12.85
2016-10-28T18:50:57.786Z,12.86
2016-10-28T18:51:58.166Z,12.86
2016-10-28T18:52:58.036Z,12.79
2016-10-28T18:53:58.112Z,12.86
2016-10-28T18:54:57.731Z,12.86
2016-10-28T18:55:57.763Z,12.91
2016-10-28T18:56:57.681Z,12.86
2016-10-28T18:57:58.280Z,12.83
2016-10-28T18:58:58.178Z,12.85
2016-10-28T18:59:58.084Z,12.78
2016-10-28T19:00:58.135Z,12.72
2016-10-28T19:01:58.479Z,12.76
2016-10-28T19:02:58.044Z,12.7
2016-10-28T19:03:58.400Z,12.76
2016-10-28T19:04:58.315Z,12.78
2016-10-28T19:05:59.220Z,12.76
2016-10-28T19:06:58.028Z,12.76
2016-10-28T19:07:58.371Z,12.72
2016-10-28T19:08:58.444Z,12.76
2016-10-28T19:09:57.826Z,12.83
2016-10-28T19:10:57.925Z,12.85
2016-10-28T19:11:58.569Z,12.83
2016-10-28T19:12:59.500Z,12.82
2016-10-28T19:13:58.690Z,12.85
2016-10-28T19:14:58.382Z,12.83
2016-10-28T19:15:58.003Z,12.85
2016-10-28T19:16:59.688Z,12.76
2016-10-28T19:17:58.418Z,12.85
2016-10-28T19:18:58.466Z,12.82
2016-10-28T19:19:58.814Z,12.86
2016-10-28T19:20:58.717Z,12.73
2016-10-28T19:21:58.465Z,12.76
2016-10-28T19:22:59.139Z,12.83
2016-10-28T19:23:58.482Z,12.85
2016-10-28T19:24:58.409Z,12.82
2016-10-28T19:25:59.255Z,12.86
2016-10-28T19:26:58.677Z,12.75
2016-10-28T19:27:58.904Z,12.79
2016-10-28T19:28:58.562Z,12.8
2016-10-28T19:29:59.347Z,12.75
2016-10-28T19:30:58.557Z,12.73
2016-10-28T19:31:58.360Z,12.76
2016-10-28T19:32:59.358Z,12.73
2016-10-28T19:33:58.877Z,12.73
2016-10-28T19:34:59.189Z,12.76
2016-10-28T19:35:58.632Z,12.73
2016-10-28T19:36:59.257Z,12.68
2016-10-28T19:37:59.530Z,12.72
2016-10-28T19:38:58.617Z,12.7
2016-10-28T19:39:59.342Z,12.76
2016-10-28T19:40:58.928Z,12.78
2016-10-28T19:41:58.773Z,12.72
2016-10-28T19:42:59.175Z,12.7
2016-10-28T19:43:59.306Z,12.68
2016-10-28T19:44:59.494Z,12.72
2016-10-28T19:45:59.475Z,12.75
2016-10-28T19:46:59.801Z,12.79
2016-10-28T19:47:58.091Z,12.78
2016-10-28T19:48:58.561Z,12.8
2016-10-28T19:49:59.783Z,12.82
2016-10-28T19:51:00.550Z,12.8
2016-10-28T19:51:59.479Z,12.86
2016-10-28T19:52:59.507Z,12.82
2016-10-28T19:53:59.485Z,12.93
2016-10-28T19:55:00.110Z,12.76
2016-10-28T19:56:00.167Z,12.87
2016-10-28T19:56:59.515Z,12.79
2016-10-28T19:57:59.731Z,12.91
2016-10-28T19:58:59.478Z,12.86
2016-10-28T19:59:59.948Z,12.82
2016-10-28T20:01:00.424Z,12.9
2016-10-28T20:01:59.286Z,12.75
2016-10-28T20:02:59.971Z,12.75
2016-10-28T20:03:59.572Z,12.78
2016-10-28T20:04:59.535Z,12.72
2016-10-28T20:05:59.739Z,12.7
2016-10-28T20:06:59.939Z,12.65
2016-10-28T20:08:00.281Z,12.64
2016-10-28T20:09:01.152Z,12.64
2016-10-28T20:09:59.688Z,12.62
2016-10-28T20:11:00.434Z,12.68
2016-10-28T20:11:59.489Z,12.68
2016-10-28T20:13:00.268Z,12.6
2016-10-28T20:14:00.307Z,12.61
2016-10-28T20:14:59.793Z,12.62
2016-10-28T20:16:00.262Z,12.65
2016-10-28T20:16:59.860Z,12.65
2016-10-28T20:17:59.242Z,12.64
2016-10-28T20:18:59.894Z,12.62
2016-10-28T20:19:59.786Z,12.58
2016-10-28T20:20:59.478Z,12.62
2016-10-28T20:22:00.350Z,12.61
2016-10-28T20:23:00.055Z,12.49
2016-10-28T20:23:59.776Z,12.45
2016-10-28T20:24:59.612Z,12.53
2016-10-28T20:26:00.511Z,12.5
2016-10-28T20:27:00.761Z,12.5
2016-10-28T20:28:00.263Z,12.43
2016-10-28T20:28:59.816Z,12.39
2016-10-28T20:29:59.480Z,12.42
2016-10-28T20:31:00.361Z,12.4
2016-10-28T20:31:59.796Z,12.37
2016-10-28T20:33:00.581Z,12.35
2016-10-28T20:34:00.623Z,12.31
2016-10-28T20:34:59.425Z,12.36
2016-10-28T20:36:00.264Z,12.4
2016-10-28T20:36:59.862Z,12.36
2016-10-28T20:38:00.128Z,12.35
2016-10-28T20:39:00.017Z,12.32
2016-10-28T20:39:59.859Z,12.31
2016-10-28T20:40:59.481Z,12.36
2016-10-28T20:42:00.472Z,12.24
2016-10-28T20:43:00.426Z,12.31
2016-10-28T20:44:00.096Z,12.31
2016-10-28T20:45:00.255Z,12.4
2016-10-28T20:46:00.087Z,12.37
2016-10-28T20:47:00.019Z,12.27
2016-10-28T20:48:00.452Z,12.28
2016-10-28T20:49:00.179Z,12.28
2016-10-28T20:50:00.123Z,12.25
2016-10-28T20:51:00.256Z,12.25
2016-10-28T20:52:00.476Z,12.28
2016-10-28T20:53:00.455Z,12.21
2016-10-28T20:54:00.679Z,12.2
2016-10-28T20:55:00.548Z,12.15
2016-10-28T20:56:00.913Z,12.24
2016-10-28T20:57:00.586Z,12.15
2016-10-28T20:58:00.789Z,12.15
2016-10-28T20:59:00.673Z,12.21
2016-10-28T21:00:00.195Z,12.15
2016-10-28T21:01:01.207Z,12.18
2016-10-28T21:02:00.581Z,12.15
2016-10-28T21:03:01.375Z,12.18
2016-10-28T21:04:00.218Z,12.15
2016-10-28T21:05:00.468Z,12.03
2016-10-28T21:06:01.093Z,12
2016-10-28T21:07:00.546Z,12.07
2016-10-28T21:08:00.961Z,12.03
2016-10-28T21:09:00.481Z,12
2016-10-28T21:10:01.955Z,11.99
2016-10-28T21:11:00.456Z,12.04
2016-10-28T21:12:00.946Z,11.95
2016-10-28T21:13:00.829Z,12.04
2016-10-28T21:14:00.869Z,12.03
2016-10-28T21:15:01.236Z,11.99
2016-10-28T21:16:00.411Z,12
2016-10-28T21:17:00.641Z,12.07
2016-10-28T21:18:00.445Z,12.07
2016-10-28T21:19:01.013Z,12.04
2016-10-28T21:20:00.670Z,12.06
2016-10-28T21:21:00.785Z,12.02
2016-10-28T21:22:01.350Z,12.06
2016-10-28T21:23:01.707Z,12.04
2016-10-28T21:24:00.751Z,12.02
2016-10-28T21:25:02.522Z,11.97
2016-10-28T21:26:01.361Z,12.02
2016-10-28T21:27:01.877Z,11.97
2016-10-28T21:28:01.077Z,11.99
2016-10-28T21:29:01.015Z,12.03
2016-10-28T21:30:01.760Z,12.03
2016-10-28T21:31:01.229Z,12.02
2016-10-28T21:32:01.972Z,12
2016-10-28T21:33:00.539Z,11.99
2016-10-28T21:34:00.994Z,12.07
2016-10-28T21:35:01.081Z,12
2016-10-28T21:36:00.985Z,12.15
2016-10-28T21:37:00.960Z,12.04
2016-10-28T21:38:00.990Z,12.12
2016-10-28T21:39:01.162Z,12.17
2016-10-28T21:40:00.862Z,12.1
2016-10-28T21:41:02.030Z,12.15
2016-10-28T21:42:01.574Z,12.18
2016-10-28T21:43:01.840Z,12.1
2016-10-28T21:44:01.218Z,12.24
2016-10-28T21:45:01.626Z,12.18
2016-10-28T21:46:00.892Z,12.18
2016-10-28T21:47:01.790Z,12.1
2016-10-28T21:48:00.587Z,12.18
2016-10-28T21:49:02.611Z,12.06
2016-10-28T21:50:00.979Z,11.99
2016-10-28T21:51:01.453Z,11.99
2016-10-28T21:52:01.337Z,11.97
2016-10-28T21:53:01.306Z,11.95
2016-10-28T21:54:01.491Z,11.94
2016-10-28T21:55:02.609Z,11.84
2016-10-28T21:56:02.269Z,11.91
2016-10-28T21:57:01.946Z,11.87
2016-10-28T21:58:01.268Z,11.8
2016-10-28T21:59:01.774Z,11.77
2016-10-28T22:00:00.998Z,11.69
2016-10-28T22:01:01.335Z,11.65
2016-10-28T22:02:01.883Z,11.72
2016-10-28T22:03:02.485Z,11.55
2016-10-28T22:04:02.412Z,11.57
2016-10-28T22:05:01.377Z,11.47
2016-10-28T22:06:01.226Z,11.47
2016-10-28T22:07:01.929Z,11.45
2016-10-28T22:08:02.045Z,11.36
2016-10-28T22:09:01.900Z,11.52
2016-10-28T22:10:02.710Z,11.44
2016-10-28T22:11:01.368Z,11.47
2016-10-28T22:12:02.134Z,11.47
2016-10-28T22:13:02.771Z,11.45
2016-10-28T22:14:01.768Z,11.45
2016-10-28T22:15:01.737Z,11.44
2016-10-28T22:16:04.468Z,11.48
2016-10-28T22:17:02.716Z,11.43
2016-10-28T22:18:01.843Z,11.5
2016-10-28T22:19:01.660Z,11.45
2016-10-28T22:20:01.831Z,11.57
2016-10-28T22:21:02.521Z,11.55
2016-10-28T22:22:02.696Z,11.57
2016-10-28T22:23:02.702Z,11.57
2016-10-28T22:24:02.617Z,11.54
2016-10-28T22:25:02.293Z,11.66
2016-10-28T22:26:02.283Z,11.63
2016-10-28T22:27:02.419Z,11.66
2016-10-28T22:28:02.709Z,11.6
2016-10-28T22:29:02.560Z,11.57
2016-10-28T22:30:02.141Z,11.63
2016-10-28T22:31:02.520Z,11.65
2016-10-28T22:32:02.717Z,11.59
2016-10-28T22:33:02.758Z,11.65
2016-10-28T22:34:02.676Z,11.6
2016-10-28T22:35:02.129Z,11.57
2016-10-28T22:36:02.215Z,11.59
2016-10-28T22:37:03.203Z,11.59
2016-10-28T22:38:02.161Z,11.59
2016-10-28T22:39:02.606Z,11.54
2016-10-28T22:40:02.636Z,11.48
2016-10-28T22:41:02.530Z,11.59
2016-10-28T22:42:02.096Z,11.51
2016-10-28T22:43:02.593Z,11.5
2016-10-28T22:44:02.164Z,11.45
2016-10-28T22:45:02.349Z,11.48
2016-10-28T22:46:02.740Z,11.47
2016-10-28T22:47:03.316Z,11.44
2016-10-28T22:48:02.119Z,11.4
2016-10-28T22:49:02.806Z,11.44
2016-10-28T22:50:02.468Z,11.37
2016-10-28T22:51:02.645Z,11.3
2016-10-28T22:52:02.583Z,11.27
2016-10-28T22:53:03.078Z,11.3
2016-10-28T22:54:02.447Z,11.12
2016-10-28T22:55:03.471Z,10.99
2016-10-28T22:56:02.483Z,11.08
2016-10-28T22:57:02.652Z,10.96
2016-10-28T22:58:02.784Z,10.82
2016-10-28T22:59:02.809Z,10.86
2016-10-28T23:00:03.036Z,10.78
2016-10-28T23:01:02.957Z,10.82
2016-10-28T23:02:02.468Z,10.87
2016-10-28T23:03:02.369Z,10.93
2016-10-28T23:04:02.881Z,10.97
2016-10-28T23:05:02.624Z,10.99
2016-10-28T23:06:03.172Z,10.94
2016-10-28T23:07:03.056Z,10.92
2016-10-28T23:08:03.057Z,10.86
2016-10-28T23:09:03.322Z,10.84
2016-10-28T23:10:02.975Z,10.76
2016-10-28T23:11:03.551Z,10.76
2016-10-28T23:12:03.685Z,10.86
2016-10-28T23:13:04.303Z,10.78
2016-10-28T23:14:02.785Z,10.78
2016-10-28T23:15:03.253Z,10.82
2016-10-28T23:16:02.843Z,10.84
2016-10-28T23:17:03.218Z,10.74
2016-10-28T23:18:03.754Z,10.79
2016-10-28T23:19:03.380Z,10.74
2016-10-28T23:20:03.606Z,10.72
2016-10-28T23:21:03.571Z,10.75
2016-10-28T23:22:03.170Z,10.71
2016-10-28T23:23:03.152Z,10.68
2016-10-28T23:24:02.980Z,10.68
2016-10-28T23:25:03.163Z,10.71
2016-10-28T23:26:04.827Z,10.64
2016-10-28T23:27:03.680Z,10.63
2016-10-28T23:28:03.978Z,10.64
2016-10-28T23:29:03.452Z,10.63
2016-10-28T23:30:04.299Z,10.69
2016-10-28T23:31:03.260Z,10.72
2016-10-28T23:32:03.860Z,10.69
2016-10-28T23:33:03.039Z,10.68
2016-10-28T23:34:03.412Z,10.75
2016-10-28T23:35:03.466Z,10.67
2016-10-28T23:36:03.562Z,10.69
2016-10-28T23:37:03.955Z,10.56
2016-10-28T23:38:03.762Z,10.53
2016-10-28T23:39:03.706Z,10.49
2016-10-28T23:40:03.966Z,10.49
2016-10-28T23:41:03.491Z,10.44
2016-10-28T23:42:03.433Z,10.34
2016-10-28T23:43:04.241Z,10.2
2016-10-28T23:44:03.749Z,10.25
2016-10-28T23:45:03.897Z,10.17
2016-10-28T23:46:03.870Z,10.05
2016-10-28T23:47:04.432Z,10.05
2016-10-28T23:48:03.093Z,9.99
2016-10-28T23:49:04.039Z,9.86
2016-10-28T23:50:03.851Z,9.87
2016-10-28T23:51:03.425Z,9.74
2016-10-28T23:52:03.980Z,9.79
2016-10-28T23:53:03.516Z,9.72
2016-10-28T23:54:03.421Z,9.79
2016-10-28T23:55:03.416Z,9.76
2016-10-28T23:56:03.577Z,9.69
2016-10-28T23:57:04.940Z,9.73
2016-10-28T23:58:04.284Z,9.76
2016-10-28T23:59:03.774Z,9.69
